createdAt,value
2017-07-10T00:01:46.887Z,1002.94
2017-07-10T00:06:42.902Z,1002.97
2017-07-10T00:11:39.450Z,1002.85
2017-07-10T00:16:36.511Z,1002.91
2017-07-10T00:26:33.404Z,1002.89
2017-07-10T00:31:30.883Z,1002.90
2017-07-10T00:42:38.122Z,1002.87
2017-07-10T00:47:36.543Z,1002.91
2017-07-10T00:52:32.862Z,1002.88
2017-07-10T00:57:30.626Z,1002.87
2017-07-10T01:02:25.932Z,1002.73
2017-07-10T01:07:21.850Z,1002.76
2017-07-10T01:12:17.934Z,1002.65
2017-07-10T01:17:13.569Z,1002.51
2017-07-10T01:22:09.459Z,1002.52
2017-07-10T01:27:08.030Z,1002.41
2017-07-10T01:32:05.270Z,1002.48
2017-07-10T01:37:00.954Z,1002.43
2017-07-10T01:41:57.123Z,1002.34
2017-07-10T01:46:53.950Z,1002.29
2017-07-10T01:51:50.889Z,1002.24
2017-07-10T01:56:47.418Z,1002.36
2017-07-10T02:01:45.329Z,1002.37
2017-07-10T02:06:46.642Z,1002.25
2017-07-10T02:11:43.619Z,1002.22
2017-07-10T02:16:39.957Z,1002.23
2017-07-10T02:21:36.716Z,1002.28
2017-07-10T02:26:32.427Z,1002.32
2017-07-10T02:31:28.834Z,1002.25
2017-07-10T02:36:25.208Z,1002.19
2017-07-10T02:41:22.962Z,1002.24
2017-07-10T02:46:21.147Z,1002.14
2017-07-10T02:51:17.414Z,1002.19
2017-07-10T02:56:13.093Z,1002.25
2017-07-10T03:01:10.085Z,1002.25
2017-07-10T03:06:05.841Z,1002.27
2017-07-10T03:11:03.395Z,1002.10
2017-07-10T03:15:59.323Z,1002.06
2017-07-10T03:20:55.652Z,1001.99
2017-07-10T03:25:51.697Z,1001.89
2017-07-10T03:30:47.732Z,1001.80
2017-07-10T03:35:44.798Z,1001.78
2017-07-10T03:40:42.362Z,1001.69
2017-07-10T03:45:38.974Z,1001.70
2017-07-10T03:50:35.623Z,1001.66
2017-07-10T03:55:32.795Z,1001.76
2017-07-10T04:00:29.598Z,1001.70
2017-07-10T04:05:25.687Z,1001.72
2017-07-10T04:10:22.574Z,1001.59
2017-07-10T04:15:19.215Z,1001.52
2017-07-10T04:20:16.341Z,1001.45
2017-07-10T04:25:12.050Z,1001.37
2017-07-10T04:30:10.106Z,1001.33
2017-07-10T04:35:05.642Z,1001.46
2017-07-10T04:40:02.865Z,1001.43
2017-07-10T04:44:59.440Z,1001.43
2017-07-10T04:49:57.435Z,1001.41
2017-07-10T04:54:55.040Z,1001.40
2017-07-10T04:59:51.678Z,1001.41
2017-07-10T05:04:47.538Z,1001.38
2017-07-10T05:09:43.460Z,1001.36
2017-07-10T05:14:40.011Z,1001.42
2017-07-10T05:19:36.973Z,1001.32
2017-07-10T05:24:32.407Z,1001.32
2017-07-10T05:29:28.460Z,1001.24
2017-07-10T05:34:24.524Z,1001.30
2017-07-10T05:39:21.446Z,1001.35
2017-07-10T05:44:17.908Z,1001.46
2017-07-10T05:49:14.729Z,1001.55
2017-07-10T05:54:10.370Z,1001.59
2017-07-10T05:59:06.309Z,1001.69
2017-07-10T06:04:02.231Z,1001.70
2017-07-10T06:08:58.461Z,1001.73
2017-07-10T06:13:55.637Z,1001.55
2017-07-10T06:18:51.482Z,1001.59
2017-07-10T06:23:48.280Z,1001.61
2017-07-10T06:28:45.666Z,1001.49
2017-07-10T06:33:41.758Z,1001.55
2017-07-10T06:38:37.421Z,1001.46
2017-07-10T06:48:37.525Z,1001.56
2017-07-10T06:53:33.397Z,1001.71
2017-07-10T06:58:29.449Z,1001.71
2017-07-10T07:03:25.690Z,1001.61
2017-07-10T07:08:22.197Z,1001.65
2017-07-10T07:13:19.410Z,1001.64
2017-07-10T07:18:15.164Z,1001.50
2017-07-10T07:23:11.170Z,1001.46
2017-07-10T07:28:08.839Z,1001.34
2017-07-10T07:33:04.501Z,1001.32
2017-07-10T07:38:01.442Z,1001.36
2017-07-10T07:42:56.964Z,1001.33
2017-07-10T07:47:53.714Z,1001.35
2017-07-10T07:52:49.209Z,1001.36
2017-07-10T07:57:45.082Z,1001.31
2017-07-10T08:02:42.083Z,1001.37
2017-07-10T08:07:38.017Z,1001.32
2017-07-10T08:12:33.990Z,1001.20
2017-07-10T08:17:30.874Z,1001.23
2017-07-10T08:22:26.545Z,1001.19
2017-07-10T08:27:23.700Z,1001.34
2017-07-10T08:32:20.482Z,1001.28
2017-07-10T08:37:16.034Z,1001.25
2017-07-10T08:42:13.488Z,1001.25
2017-07-10T08:47:09.054Z,1001.26
2017-07-10T08:52:06.080Z,1001.13
2017-07-10T08:57:02.208Z,1001.23
2017-07-10T09:01:58.307Z,1001.26
2017-07-10T09:06:54.467Z,1001.31
2017-07-10T09:11:52.493Z,1001.40
2017-07-10T09:16:48.685Z,1001.37
2017-07-10T09:21:45.245Z,1001.42
2017-07-10T09:26:41.688Z,1001.27
2017-07-10T09:31:37.973Z,1001.23
2017-07-10T09:36:34.042Z,1001.26
2017-07-10T09:41:32.482Z,1001.22
2017-07-10T09:46:30.573Z,1001.15
2017-07-10T09:51:27.901Z,1001.11
2017-07-10T09:56:23.835Z,1001.04
2017-07-10T10:01:20.536Z,1001.06
2017-07-10T10:06:18.377Z,1001.24
2017-07-10T10:11:17.083Z,1001.39
2017-07-10T10:16:15.452Z,1001.22
2017-07-10T10:21:12.674Z,1000.93
2017-07-10T10:26:09.672Z,1001.03
2017-07-10T10:31:07.005Z,1001.14
2017-07-10T10:36:04.180Z,1001.00
2017-07-10T10:40:58.747Z,1001.00
2017-07-10T10:45:54.127Z,1000.84
2017-07-10T10:50:49.269Z,1000.84
2017-07-10T10:55:45.511Z,1000.85
2017-07-10T11:00:40.778Z,1001.03
2017-07-10T11:05:36.752Z,1001.05
2017-07-10T11:10:33.697Z,1001.12
2017-07-10T11:15:30.444Z,1001.05
2017-07-10T11:20:25.965Z,1000.98
2017-07-10T11:25:22.107Z,1001.01
2017-07-10T11:30:20.516Z,1000.92
2017-07-10T11:35:16.007Z,1000.81
2017-07-10T11:40:12.040Z,1000.88
2017-07-10T11:45:08.106Z,1000.82
2017-07-10T11:50:04.093Z,1000.80
2017-07-10T11:54:59.719Z,1000.77
2017-07-10T11:59:57.148Z,1000.79
2017-07-10T12:04:54.222Z,1000.73
2017-07-10T12:09:50.033Z,1000.72
2017-07-10T12:14:45.366Z,1000.76
2017-07-10T12:19:42.305Z,1000.66
2017-07-10T12:24:38.264Z,1000.80
2017-07-10T12:29:36.029Z,1000.62
2017-07-10T12:34:33.185Z,1000.60
2017-07-10T12:39:30.433Z,1000.58
2017-07-10T12:44:29.387Z,1000.44
2017-07-10T12:49:23.619Z,1000.44
2017-07-10T12:54:19.451Z,1000.46
2017-07-10T12:59:16.521Z,1000.38
2017-07-10T13:04:13.475Z,1000.36
2017-07-10T13:09:07.797Z,1000.34
2017-07-10T13:14:03.017Z,1000.39
2017-07-10T13:18:58.288Z,1000.51
2017-07-10T13:23:53.791Z,1000.46
2017-07-10T13:28:49.365Z,1000.56
2017-07-10T13:33:45.135Z,1000.56
2017-07-10T13:38:42.290Z,1000.54
2017-07-10T13:43:40.862Z,1000.66
2017-07-10T13:48:38.210Z,1000.63
2017-07-10T13:53:36.058Z,1000.58
2017-07-10T13:58:33.825Z,1000.58
2017-07-10T14:03:29.944Z,1000.56
2017-07-10T14:08:27.274Z,1000.52
2017-07-10T14:13:23.971Z,1000.47
2017-07-10T14:18:19.258Z,1000.46
2017-07-10T14:23:14.832Z,1000.37
2017-07-10T14:28:11.131Z,1000.27
2017-07-10T14:33:07.208Z,1000.16
2017-07-10T14:38:04.269Z,1000.07
2017-07-10T14:43:00.706Z,1000.16
2017-07-10T14:47:56.352Z,1000.17
2017-07-10T14:52:52.338Z,1000.24
2017-07-10T14:57:48.778Z,1000.24
2017-07-10T15:02:44.871Z,1000.31
2017-07-10T15:07:40.722Z,1000.36
2017-07-10T15:12:37.472Z,1000.17
2017-07-10T15:17:35.947Z,1000.31
2017-07-10T15:22:30.946Z,1000.23
2017-07-10T15:27:27.341Z,1000.22
2017-07-10T15:32:24.188Z,1000.23
2017-07-10T15:37:21.286Z,1000.45
2017-07-10T15:42:19.461Z,1000.32
2017-07-10T15:47:14.677Z,1000.51
2017-07-10T15:52:11.646Z,1000.48
2017-07-10T15:57:12.866Z,1000.41
2017-07-10T16:02:11.681Z,1000.33
2017-07-10T16:07:08.664Z,1000.24
2017-07-10T16:12:05.738Z,1000.17
2017-07-10T16:17:01.481Z,1000.30
2017-07-10T16:21:59.123Z,1000.24
2017-07-10T16:26:56.550Z,1000.22
2017-07-10T16:31:53.248Z,1000.22
2017-07-10T16:36:50.352Z,1000.15
2017-07-10T16:41:48.095Z,999.97
2017-07-10T16:46:44.544Z,1000.07
2017-07-10T16:51:41.052Z,1000.23
2017-07-10T16:56:36.680Z,1000.39
2017-07-10T17:01:32.449Z,1000.43
2017-07-10T17:06:43.877Z,1000.53
2017-07-10T17:11:36.831Z,1000.72
2017-07-10T17:16:34.400Z,1000.74
2017-07-10T17:21:29.911Z,1000.71
2017-07-10T17:26:26.942Z,1000.71
2017-07-10T17:31:22.674Z,1000.64
2017-07-10T17:36:19.784Z,1000.68
2017-07-10T17:41:15.469Z,1000.51
2017-07-10T17:46:13.293Z,1000.47
2017-07-10T17:51:09.068Z,1000.54
2017-07-10T17:56:04.797Z,1000.62
2017-07-10T18:01:00.553Z,1000.65
2017-07-10T18:05:57.249Z,1000.63
2017-07-10T18:10:52.910Z,1000.69
2017-07-10T18:15:49.655Z,1000.84
2017-07-10T18:20:46.072Z,1000.88
2017-07-10T18:25:41.806Z,1000.90
2017-07-10T18:30:38.313Z,1000.87
2017-07-10T18:35:34.241Z,1000.86
2017-07-10T18:40:30.394Z,1000.95
2017-07-10T18:45:26.230Z,1000.88
2017-07-10T18:50:22.302Z,1000.88
2017-07-10T18:55:18.255Z,1000.85
2017-07-10T19:00:15.236Z,1000.88
2017-07-10T19:05:11.829Z,1000.84
2017-07-10T19:10:07.334Z,1000.85
2017-07-10T19:15:03.222Z,1000.93
2017-07-10T19:20:00.167Z,1001.10
2017-07-10T19:24:56.369Z,1001.27
2017-07-10T19:29:51.823Z,1001.51
2017-07-10T19:34:47.726Z,1001.60
2017-07-10T19:39:43.679Z,1001.67
2017-07-10T19:44:39.463Z,1001.76
2017-07-10T19:49:35.445Z,1001.97
2017-07-10T19:54:32.576Z,1001.95
2017-07-10T19:59:28.367Z,1002.00
2017-07-10T20:04:24.623Z,1002.26
2017-07-10T20:09:20.915Z,1002.24
2017-07-10T20:14:17.816Z,1002.29
2017-07-10T20:19:13.605Z,1002.23
2017-07-10T20:24:09.707Z,1002.22
2017-07-10T20:29:05.490Z,1002.22
2017-07-10T20:34:02.284Z,1002.32
2017-07-10T20:38:58.051Z,1002.46
2017-07-10T20:43:53.964Z,1002.41
2017-07-10T20:48:49.736Z,1002.53
2017-07-10T20:53:45.645Z,1002.56
2017-07-10T20:58:42.610Z,1002.68
2017-07-10T21:03:38.737Z,1002.65
2017-07-10T21:08:34.517Z,1002.58
2017-07-10T21:13:30.456Z,1002.52
2017-07-10T21:18:27.164Z,1002.44
2017-07-10T21:23:22.728Z,1002.38
2017-07-10T21:28:18.752Z,1002.20
2017-07-10T21:33:14.829Z,1002.18
2017-07-10T21:38:10.610Z,1002.21
2017-07-10T21:43:07.727Z,1002.27
2017-07-10T21:48:04.378Z,1002.40
2017-07-10T21:52:59.883Z,1002.44
2017-07-10T21:57:58.144Z,1002.53
2017-07-10T22:02:53.792Z,1002.48
2017-07-10T22:07:49.512Z,1002.63
2017-07-10T22:12:45.838Z,1002.72
2017-07-10T22:17:43.029Z,1002.69
2017-07-10T22:22:39.546Z,1002.61
2017-07-10T22:27:35.356Z,1002.54
2017-07-10T22:32:31.323Z,1002.63
2017-07-10T22:37:28.996Z,1002.71
2017-07-10T22:42:24.423Z,1002.72
2017-07-10T22:47:20.383Z,1002.69
2017-07-10T22:52:17.042Z,1002.82
2017-07-10T22:57:14.581Z,1002.80
2017-07-10T23:02:10.219Z,1002.83
2017-07-10T23:07:05.849Z,1002.97
2017-07-10T23:12:03.364Z,1002.88
2017-07-10T23:16:58.840Z,1003.02
2017-07-10T23:21:55.093Z,1003.02
2017-07-10T23:26:50.904Z,1002.95
2017-07-10T23:31:48.311Z,1002.86
2017-07-10T23:36:45.974Z,1002.80
2017-07-10T23:41:42.219Z,1002.85
2017-07-10T23:46:38.772Z,1002.90
2017-07-10T23:51:34.568Z,1002.89
2017-07-10T23:56:30.207Z,1002.93
